Nearby METAR Reports

 

KMGY - Dayton, Ohio, USA
Distance from station: N 3mi, 5km
Updated: 01/23/2020 2:53am
Clear
Clear
 Wind from SSE
Wind: SSE 7 mph , 11 km/h
Temperature: 34°F , 1°C
Wind Chill: 28°F , -2°C
Dew Point: 18°F , -8°C
Humidity: 51%
Barometer: 30.20 inHg , 1022.7 hPa
Clouds: Clear
Visibility: 10 miles , 16 km
2020/01/23 07:53 KMGY 230753Z AUTO 15006KT 10SM CLR 01/M08 A3020 RMK AO2 SLP234 T00111078
KMWO - Middletown/Hook, Ohio, USA
Distance from station: W 9mi, 14km
Updated: 01/23/2020 3:15am
Clear
Clear
 Wind from calm
Wind: Calm
Temperature: 27°F , -3°C
Dew Point: 23°F , -5°C
Humidity: 86%
Barometer: 30.22 inHg , 1023.4 hPa
Clouds: Clear
Visibility: 10 miles , 16 km
2020/01/23 08:15 KMWO 230815Z AUTO 00000KT 10SM CLR M03/M05 A3022 RMK AO2 T10311049
 
KHAO - Hamilton, Ohio, USA
Distance from station: SW 20mi, 32km
Updated: 01/23/2020 2:53am
Clear
Clear
 Wind from E
Wind: E 6 mph , 9 km/h
Temperature: 30°F , -1°C
Wind Chill: 24°F , -4°C
Dew Point: 21°F , -6°C
Humidity: 69%
Barometer: 30.22 inHg , 1023.4 hPa
Clouds: Clear
Visibility: 10 miles , 16 km
2020/01/23 07:53 KHAO 230753Z AUTO 10005KT 10SM CLR M01/M06 A3022 RMK AO2 SLP239 T10111061
KFFO - Wright Paterson, Ohio, USA
Distance from station: NNE 21mi, 34km
Updated: 01/23/2020 2:56am
Clear
Clear
 Wind from calm
Wind: Calm
Temperature: 28°F , -2°C
Dew Point: 19°F , -7°C
Humidity: 69%
Barometer: 30.21 inHg , 1023 hPa
Clouds: Clear
Visibility: 10 miles , 16 km
2020/01/23 07:56 KFFO 230756Z AUTO 00000KT 10SM CLR M02/M07 A3021 RMK AO2 SLP242 T10231070
 
KDAY - Dayton, Ohio, USA
Distance from station: N 24mi, 39km
Updated: 01/23/2020 2:56am
Overcast
Overcast
 Wind from SE
Wind: SE 7 mph , 11 km/h
Temperature: 30°F , -1°C
Wind Chill: 23°F , -5°C
Dew Point: 18°F , -8°C
Humidity: 59%
Barometer: 30.21 inHg , 1023 hPa
Clouds: Overcast
Visibility: 10 miles , 16 km
Cloud details: Overcast 19000 ft
2020/01/23 07:56 KDAY 230756Z 14006KT 10SM OVC190 M01/M08 A3021 RMK AO2 SLP241 T10111078
KILN - Wilmington, Ohio, USA
Distance from station: ESE 25mi, 39km
Updated: 01/23/2020 2:54am
Clear
Clear
 Wind from SE
Wind: SE 7 mph , 11 km/h
Temperature: 30°F , -1°C
Wind Chill: 23°F , -5°C
Dew Point: 19°F , -7°C
Humidity: 64%
Barometer: 30.21 inHg , 1023 hPa
Clouds: Clear
Visibility: 10 miles , 16 km
2020/01/23 07:54 KILN 230754Z AUTO 13006KT 10SM CLR M01/M07 A3021 RMK AO2 SLP254 T10111072
 
KSGH - Springfield Muni, Ohio, USA
Distance from station: NE 29mi, 46km
Updated: 01/23/2020 2:56am
Clear
Clear
 Wind from SE
Wind: SE 7 mph , 11 km/h
Temperature: 28°F , -2°C
Wind Chill: 21°F , -6°C
Dew Point: 21°F , -6°C
Humidity: 74%
Barometer: 30.21 inHg , 1023 hPa
Clouds: Clear
Visibility: 10 miles , 16 km
2020/01/23 07:56 KSGH 230756Z AUTO 14006KT 10SM CLR M02/M06 A3021 RMK AO2 SLP243 T10171061
KI69 - Batavia, Ohio, USA
Distance from station: S 32mi, 52km
Updated: 01/23/2020 3:18am
Clear
Clear
 Wind from calm
Wind: Calm
Temperature: 32°F , 0°C
Dew Point: 19°F , -7°C
Humidity: 60%
Barometer: 30.22 inHg , 1023.4 hPa
Clouds: Clear
Visibility: 10 miles , 16 km
2020/01/23 08:18 KI69 230818Z AUTO 00000KT 10SM CLR 00/M07 A3022 RMK AO2 T00001066
 
KLUK - Cincinnat/Lunken, Ohio, USA
Distance from station: SSW 33mi, 53km
Updated: 01/23/2020 2:53am
Clear
Clear
 Wind from calm
Wind: Calm
Temperature: 27°F , -3°C
Dew Point: 21°F , -6°C
Humidity: 80%
Barometer: 30.24 inHg , 1024 hPa
Clouds: Clear
Visibility: 10 miles , 16 km
2020/01/23 07:53 KLUK 230753Z AUTO 00000KT 10SM CLR M03/M06 A3024 RMK AO2 SLP245 T10281056 TSNO
KCVG - Covington, Kentucky, USA
Distance from station: SSW 42mi, 67km
Updated: 01/23/2020 2:52am
Overcast
Overcast
 Wind from SE
Wind: SE 7 mph , 11 km/h
Temperature: 34°F , 1°C
Wind Chill: 28°F , -2°C
Dew Point: 18°F , -8°C
Humidity: 51%
Barometer: 30.19 inHg , 1022.4 hPa
Clouds: Overcast
Visibility: 10 miles , 16 km
Cloud details: Overcast 16000 ft
2020/01/23 07:52 KCVG 230752Z 13006KT 10SM OVC160 01/M08 A3019 RMK AO2 SLP230 T00061078
 
KVES - Versailles, Ohio, USA
Distance from station: NNW 47mi, 76km
Updated: 01/23/2020 3:15am
Partly cloudy
Partly cloudy
 Wind from SSE
Wind: SSE 3 mph , 6 km/h
Temperature: 32°F , 0°C
Dew Point: 18°F , -8°C
Humidity: 55%
Barometer: 30.19 inHg , 1022.4 hPa
Clouds: Partly cloudy
Visibility: 10 miles , 16 km
Cloud details: Partly cloudy 11000 ft
2020/01/23 08:15 KVES 230815Z AUTO 16003KT 10SM SCT110 00/M08 A3019 RMK AO2